Time;durP1;ratioP1;P1;durP2;ratioP2;P2;SDS_P1;SDS_P2;PMS_P1;PMS_P2;Temp;Humidity;BMP_temperature;BMP_pressure;BME280_temperature;BME280_humidity;BME280_pressure;Samples;Min_cycle;Max_cycle;Signal;HPM_P1;HPM_P2
2022/09/07 00:00:07;;;;;;;2.30;1.60;;;;;;;;;;2015487;29;20029;-89
2022/09/07 00:01:07;;;;;;;1.80;1.48;;;;;;;;;;2015572;29;20036;-90
2022/09/07 00:02:08;;;;;;;3.17;1.52;;;;;;;;;;2023807;29;20075;-90
2022/09/07 00:03:08;;;;;;;2.45;1.40;;;;;;;;;;2023411;29;20031;-90
2022/09/07 00:04:09;;;;;;;2.80;1.77;;;;;;;;;;2023583;29;20370;-90
2022/09/07 00:05:09;;;;;;;3.67;1.80;;;;;;;;;;2031762;29;20086;-89
2022/09/07 00:06:11;;;;;;;4.15;1.45;;;;;;;;;;2023265;29;20163;-89
2022/09/07 00:07:11;;;;;;;1.55;1.30;;;;;;;;;;2015533;29;20024;-89
2022/09/07 00:08:13;;;;;;;3.15;1.60;;;;;;;;;;2023351;29;20176;-89
2022/09/07 00:09:14;;;;;;;3.17;1.60;;;;;;;;;;2031004;29;20032;-89
2022/09/07 00:10:14;;;;;;;2.00;1.60;;;;;;;;;;2030971;29;20032;-90
2022/09/07 00:11:18;;;;;;;2.90;1.80;;;;;;;;;;2023041;29;20048;-89
2022/09/07 00:12:18;;;;;;;2.05;1.40;;;;;;;;;;2015650;29;20073;-89
2022/09/07 00:13:19;;;;;;;2.40;1.52;;;;;;;;;;2015585;29;20029;-89
2022/09/07 00:14:20;;;;;;;3.70;1.33;;;;;;;;;;2023439;29;20130;-89
2022/09/07 00:15:21;;;;;;;1.83;1.40;;;;;;;;;;2031687;29;20440;-90
2022/09/07 00:16:26;;;;;;;1.52;1.30;;;;;;;;;;2031748;29;20071;-89
2022/09/07 00:17:26;;;;;;;2.80;1.50;;;;;;;;;;2023155;29;20025;-89
2022/09/07 00:18:27;;;;;;;3.88;1.42;;;;;;;;;;2023172;29;20455;-90
2022/09/07 00:19:27;;;;;;;2.13;1.27;;;;;;;;;;2031624;29;20024;-90
2022/09/07 00:20:28;;;;;;;2.78;1.40;;;;;;;;;;2030982;29;20020;-90
2022/09/07 00:21:29;;;;;;;5.47;1.77;;;;;;;;;;2022960;29;20029;-90
2022/09/07 00:22:30;;;;;;;5.78;1.95;;;;;;;;;;2015288;29;20021;-89
2022/09/07 00:23:31;;;;;;;3.97;1.85;;;;;;;;;;2023246;29;20413;-90
2022/09/07 00:24:32;;;;;;;2.90;1.33;;;;;;;;;;2031447;29;20398;-90
2022/09/07 00:25:37;;;;;;;2.60;1.60;;;;;;;;;;2022870;29;20124;-90
2022/09/07 00:26:38;;;;;;;2.63;1.70;;;;;;;;;;2015977;29;20415;-90
2022/09/07 00:27:39;;;;;;;4.97;1.70;;;;;;;;;;2023190;29;20076;-88
2022/09/07 00:28:40;;;;;;;4.00;1.60;;;;;;;;;;2032480;29;20035;-88
2022/09/07 00:29:41;;;;;;;3.80;1.50;;;;;;;;;;2030048;29;20102;-88
2022/09/07 00:30:42;;;;;;;8.07;2.17;;;;;;;;;;2029813;29;20587;-87
2022/09/07 00:31:42;;;;;;;2.90;1.42;;;;;;;;;;2024851;29;20017;-88
2022/09/07 00:32:42;;;;;;;3.63;1.55;;;;;;;;;;2023746;29;20049;-88
2022/09/07 00:33:44;;;;;;;2.92;1.35;;;;;;;;;;2031568;29;20337;-88
2022/09/07 00:34:45;;;;;;;4.50;1.77;;;;;;;;;;2031127;29;20032;-90
2022/09/07 00:35:45;;;;;;;4.07;1.55;;;;;;;;;;2031278;29;20078;-90
2022/09/07 00:36:46;;;;;;;2.45;1.30;;;;;;;;;;2023251;29;20115;-89
2022/09/07 00:37:46;;;;;;;2.95;1.77;;;;;;;;;;2015220;29;20547;-90
2022/09/07 00:38:47;;;;;;;1.50;1.33;;;;;;;;;;2023171;29;20033;-89
2022/09/07 00:39:48;;;;;;;3.42;1.50;;;;;;;;;;2022840;29;20124;-89
2022/09/07 00:40:48;;;;;;;2.80;1.48;;;;;;;;;;2015388;29;20029;-89
2022/09/07 00:41:49;;;;;;;4.72;1.50;;;;;;;;;;2023273;29;20031;-89
2022/09/07 00:42:49;;;;;;;2.80;1.98;;;;;;;;;;2030745;29;20044;-89
2022/09/07 00:43:58;;;;;;;4.70;1.90;;;;;;;;;;2023031;29;20508;-90
2022/09/07 00:45:17;;;;;;;3.30;1.55;;;;;;;;;;2020466;29;20044;-89
2022/09/07 00:46:21;;;;;;;2.97;1.90;;;;;;;;;;2031595;29;20020;-89
2022/09/07 00:47:24;;;;;;;4.72;1.58;;;;;;;;;;2030852;29;20116;-90
2022/09/07 00:48:31;;;;;;;3.90;1.55;;;;;;;;;;2035949;29;20111;-90
2022/09/07 00:49:32;;;;;;;3.90;1.75;;;;;;;;;;2032684;29;20031;-89
2022/09/07 00:50:52;;;;;;;4.03;1.92;;;;;;;;;;2031563;29;20069;-89
2022/09/07 00:52:01;;;;;;;3.97;1.27;;;;;;;;;;2023489;29;20156;-89
2022/09/07 00:53:09;;;;;;;2.53;1.73;;;;;;;;;;2024003;29;20025;-89
2022/09/07 00:54:17;;;;;;;3.38;1.60;;;;;;;;;;2023139;29;20080;-89
2022/09/07 00:55:18;;;;;;;2.40;2.20;;;;;;;;;;2024185;29;20065;-89
2022/09/07 00:56:22;;;;;;;5.90;1.80;;;;;;;;;;2023095;29;20469;-89
2022/09/07 00:57:26;;;;;;;1.35;1.25;;;;;;;;;;2023629;29;20028;-88
2022/09/07 00:58:28;;;;;;;2.28;1.50;;;;;;;;;;2031544;29;20024;-89
2022/09/07 00:59:33;;;;;;;2.08;1.88;;;;;;;;;;2023138;29;20255;-89
2022/09/07 01:00:34;;;;;;;2.43;1.80;;;;;;;;;;1672345;29;10009751;-89
2022/09/07 01:01:35;;;;;;;2.47;1.30;;;;;;;;;;2022907;29;20029;-88
2022/09/07 01:02:35;;;;;;;2.53;1.70;;;;;;;;;;2014097;29;20021;-88
2022/09/07 01:03:42;;;;;;;3.28;1.50;;;;;;;;;;2015243;29;20021;-89
2022/09/07 01:04:45;;;;;;;1.92;1.55;;;;;;;;;;2016076;29;20021;-89
2022/09/07 01:06:14;;;;;;;3.53;1.60;;;;;;;;;;2023121;29;20032;-88
2022/09/07 01:07:14;;;;;;;1.65;1.40;;;;;;;;;;2023129;29;20056;-89
2022/09/07 01:08:15;;;;;;;1.52;1.40;;;;;;;;;;2022966;29;20052;-89
2022/09/07 01:09:21;;;;;;;1.80;1.70;;;;;;;;;;1416878;29;10002470;-89
2022/09/07 01:10:29;;;;;;;2.20;1.55;;;;;;;;;;1348285;29;10001546;-89
2022/09/07 01:11:34;;;;;;;2.00;1.50;;;;;;;;;;1816296;29;10000889;-89
2022/09/07 01:12:35;;;;;;;1.95;1.55;;;;;;;;;;2023547;29;20825;-89
2022/09/07 01:13:35;;;;;;;1.92;1.52;;;;;;;;;;2022862;29;20033;-88
2022/09/07 01:14:43;;;;;;;2.00;1.58;;;;;;;;;;2015267;29;20021;-88
2022/09/07 01:15:52;;;;;;;1.50;1.40;;;;;;;;;;2023733;29;20575;-89
2022/09/07 01:17:17;;;;;;;2.25;1.60;;;;;;;;;;2022906;29;20032;-88
2022/09/07 01:18:24;;;;;;;2.38;1.20;;;;;;;;;;2026283;29;20127;-89
2022/09/07 01:19:58;;;;;;;2.20;1.55;;;;;;;;;;2022685;29;20076;-88
2022/09/07 01:21:18;;;;;;;2.42;1.50;;;;;;;;;;1682317;29;10001226;-88
2022/09/07 01:22:30;;;;;;;2.00;1.40;;;;;;;;;;2025478;29;20036;-90
2022/09/07 01:24:07;;;;;;;3.90;1.80;;;;;;;;;;2023088;29;20571;-88
2022/09/07 01:25:11;;;;;;;1.55;1.40;;;;;;;;;;2028036;29;20621;-89
2022/09/07 01:26:36;;;;;;;1.40;1.25;;;;;;;;;;2031435;29;20039;-88
2022/09/07 01:27:48;;;;;;;2.10;1.40;;;;;;;;;;2022789;29;20382;-88
2022/09/07 01:28:57;;;;;;;2.83;1.50;;;;;;;;;;2024371;29;20033;-87
2022/09/07 01:30:05;;;;;;;7.40;1.63;;;;;;;;;;2022861;29;20036;-89
2022/09/07 01:31:30;;;;;;;2.13;1.52;;;;;;;;;;2024005;29;20028;-89
2022/09/07 01:33:08;;;;;;;1.73;1.50;;;;;;;;;;2022785;29;20121;-89
2022/09/07 01:34:11;;;;;;;3.90;1.80;;;;;;;;;;2027749;29;20460;-89
2022/09/07 01:35:25;;;;;;;1.88;1.63;;;;;;;;;;2022705;29;20039;-89
2022/09/07 01:36:29;;;;;;;2.63;1.50;;;;;;;;;;2024426;29;20476;-89
2022/09/07 01:37:51;;;;;;;2.00;1.80;;;;;;;;;;2030662;29;20095;-89
2022/09/07 01:38:55;;;;;;;3.20;1.75;;;;;;;;;;2030745;29;20043;-88
2022/09/07 01:39:59;;;;;;;2.60;1.98;;;;;;;;;;2022967;29;20655;-89
2022/09/07 01:41:20;;;;;;;2.00;1.80;;;;;;;;;;2015382;29;20040;-89
2022/09/07 01:42:23;;;;;;;;;;;;;;;;;;2026076;29;20099;-89
2022/09/07 01:43:32;;;;;;;2.00;1.58;;;;;;;;;;2032822;29;19910;-89
2022/09/07 01:44:41;;;;;;;3.22;1.35;;;;;;;;;;2024117;29;20416;-88
2022/09/07 01:45:43;;;;;;;4.85;1.45;;;;;;;;;;2026102;29;20025;-88
2022/09/07 01:47:00;;;;;;;4.21;1.84;;;;;;;;;;2006258;29;10267267;-90
2022/09/07 01:48:06;;;;;;;2.30;1.70;;;;;;;;;;2033803;29;20238;-88
2022/09/07 01:49:16;;;;;;;1.73;1.55;;;;;;;;;;2025349;29;20040;-90
2022/09/07 01:50:24;;;;;;;2.60;1.60;;;;;;;;;;2017666;29;20525;-89
2022/09/07 01:51:31;;;;;;;1.92;1.65;;;;;;;;;;2025381;29;20025;-90
2022/09/07 01:52:48;;;;;;;3.40;1.80;;;;;;;;;;2024260;29;20111;-89
2022/09/07 01:53:53;;;;;;;2.30;1.60;;;;;;;;;;2026037;29;20028;-90
2022/09/07 01:54:59;;;;;;;2.15;1.98;;;;;;;;;;2024304;29;20123;-89
2022/09/07 01:56:09;;;;;;;2.92;1.90;;;;;;;;;;2025067;29;20028;-90
2022/09/07 01:57:15;;;;;;;2.65;2.10;;;;;;;;;;2032178;29;20540;-89
2022/09/07 01:58:25;;;;;;;3.45;1.92;;;;;;;;;;2025893;29;20159;-89
2022/09/07 01:59:33;;;;;;;2.20;1.65;;;;;;;;;;2019778;29;20052;-90
2022/09/07 02:00:35;;;;;;;1.88;1.58;;;;;;;;;;2018871;29;20029;-88
2022/09/07 02:01:50;;;;;;;2.38;1.67;;;;;;;;;;2025245;29;20055;-89
2022/09/07 02:02:54;;;;;;;3.17;1.98;;;;;;;;;;2025220;29;20028;-89
2022/09/07 02:04:13;;;;;;;1.98;1.75;;;;;;;;;;2016964;29;20036;-89
2022/09/07 02:05:32;;;;;;;2.35;1.55;;;;;;;;;;2026726;29;20064;-89
2022/09/07 02:06:47;;;;;;;2.33;1.60;;;;;;;;;;2024148;29;20134;-89
2022/09/07 02:07:52;;;;;;;2.83;1.60;;;;;;;;;;2018182;29;20033;-89
2022/09/07 02:09:03;;;;;;;2.88;1.88;;;;;;;;;;2024401;29;20100;-90
2022/09/07 02:10:15;;;;;;;2.70;1.60;;;;;;;;;;2032091;29;20072;-89
2022/09/07 02:11:20;;;;;;;1.95;1.50;;;;;;;;;;2023921;29;20381;-89
2022/09/07 02:12:26;;;;;;;2.60;1.85;;;;;;;;;;2016826;29;20116;-89
2022/09/07 02:13:35;;;;;;;2.28;1.65;;;;;;;;;;2016999;29;20037;-89
2022/09/07 02:14:40;;;;;;;4.28;1.67;;;;;;;;;;2025023;29;20029;-89
2022/09/07 02:15:45;;;;;;;2.03;1.60;;;;;;;;;;2031770;29;20099;-89
2022/09/07 02:17:27;;;;;;;3.53;1.80;;;;;;;;;;2023927;29;20393;-89
2022/09/07 02:18:35;;;;;;;2.00;1.67;;;;;;;;;;2021369;29;20055;-89
2022/09/07 02:20:02;;;;;;;1.92;1.60;;;;;;;;;;2025091;29;20043;-89
2022/09/07 02:21:06;;;;;;;2.80;1.70;;;;;;;;;;2024072;29;20032;-88
2022/09/07 02:22:13;;;;;;;3.22;1.88;;;;;;;;;;2024529;29;20661;-88
2022/09/07 02:23:27;;;;;;;2.20;1.52;;;;;;;;;;2032661;29;20103;-89
2022/09/07 02:24:34;;;;;;;4.97;1.90;;;;;;;;;;2032500;29;20046;-89
2022/09/07 02:25:44;;;;;;;2.10;1.50;;;;;;;;;;2024033;29;20024;-89
2022/09/07 02:26:48;;;;;;;2.35;1.63;;;;;;;;;;2017695;29;20037;-89
2022/09/07 02:28:15;;;;;;;2.97;1.60;;;;;;;;;;2024119;29;20100;-88
2022/09/07 02:29:16;;;;;;;3.78;1.65;;;;;;;;;;2029705;29;20058;-89
2022/09/07 02:30:16;;;;;;;3.15;1.80;;;;;;;;;;2032711;29;20020;-88
2022/09/07 02:31:17;;;;;;;1.60;1.50;;;;;;;;;;2023847;29;20574;-88
2022/09/07 02:32:18;;;;;;;2.20;1.80;;;;;;;;;;2024047;29;20174;-88
2022/09/07 02:33:18;;;;;;;3.72;1.60;;;;;;;;;;2032331;29;20532;-88
2022/09/07 02:34:19;;;;;;;;;;;;;;;;;;1693095;29;10001760;-88
2022/09/07 02:35:19;;;;;;;4.10;1.80;;;;;;;;;;2031694;29;20338;-88
2022/09/07 02:36:25;;;;;;;3.55;2.00;;;;;;;;;;2023833;29;20483;-88
2022/09/07 02:37:27;;;;;;;2.67;1.73;;;;;;;;;;2016957;29;20113;-88
2022/09/07 02:38:28;;;;;;;2.80;2.13;;;;;;;;;;2016295;29;20025;-88
2022/09/07 02:39:29;;;;;;;3.83;1.90;;;;;;;;;;2024007;29;20108;-88
2022/09/07 02:40:30;;;;;;;2.47;1.75;;;;;;;;;;2023675;29;20495;-87
2022/09/07 02:41:41;;;;;;;2.70;1.75;;;;;;;;;;2023974;29;20029;-88
2022/09/07 02:42:43;;;;;;;2.30;1.88;;;;;;;;;;2031750;29;20515;-88
2022/09/07 02:43:44;;;;;;;3.03;1.88;;;;;;;;;;2023814;29;20112;-88
2022/09/07 02:44:46;;;;;;;1.88;1.75;;;;;;;;;;2023846;29;20568;-88
2022/09/07 02:46:18;;;;;;;1.70;1.48;;;;;;;;;;2023656;29;20157;-88
2022/09/07 02:47:40;;;;;;;2.45;2.05;;;;;;;;;;2028139;29;20028;-88
2022/09/07 02:49:04;;;;;;;1.98;1.63;;;;;;;;;;1692586;29;10001528;-88
2022/09/07 02:50:23;;;;;;;1.85;1.55;;;;;;;;;;2000011;29;20038;-89
2022/09/07 02:51:31;;;;;;;2.85;1.70;;;;;;;;;;2026277;29;20029;-89
2022/09/07 02:53:06;;;;;;;2.15;1.95;;;;;;;;;;2023718;29;20029;-89
2022/09/07 02:54:07;;;;;;;1.88;1.73;;;;;;;;;;2024932;29;20039;-89
2022/09/07 02:55:10;;;;;;;3.35;1.90;;;;;;;;;;1676461;29;10275542;-89
2022/09/07 02:56:32;;;;;;;2.75;1.70;;;;;;;;;;2023985;29;20036;-89
2022/09/07 02:57:56;;;;;;;2.58;1.60;;;;;;;;;;2032264;29;20573;-89
2022/09/07 02:59:06;;;;;;;2.67;2.08;;;;;;;;;;2023783;29;20493;-89
2022/09/07 03:00:10;;;;;;;3.97;2.00;;;;;;;;;;2024857;29;20044;-89
2022/09/07 03:01:18;;;;;;;2.00;1.75;;;;;;;;;;2023492;29;20103;-89
2022/09/07 03:02:31;;;;;;;2.03;1.42;;;;;;;;;;2024739;29;20263;-89
2022/09/07 03:03:45;;;;;;;2.83;1.80;;;;;;;;;;2032085;29;20024;-88
2022/09/07 03:05:09;;;;;;;3.63;1.70;;;;;;;;;;2032384;29;20024;-89
2022/09/07 03:06:42;;;;;;;3.47;1.95;;;;;;;;;;2023545;29;20100;-88
2022/09/07 03:08:07;;;;;;;2.72;1.92;;;;;;;;;;2027142;29;20047;-87
2022/09/07 03:09:13;;;;;;;2.55;1.73;;;;;;;;;;2023717;29;20040;-89
2022/09/07 03:10:15;;;;;;;5.55;2.10;;;;;;;;;;2016534;29;20117;-88
2022/09/07 03:11:16;;;;;;;1.85;1.73;;;;;;;;;;2023652;29;20080;-87
2022/09/07 03:12:17;;;;;;;2.40;2.00;;;;;;;;;;2032074;29;20028;-88
2022/09/07 03:13:26;;;;;;;4.25;2.10;;;;;;;;;;2031204;29;20047;-87
2022/09/07 03:14:29;;;;;;;2.38;1.80;;;;;;;;;;2023414;29;20106;-87
2022/09/07 03:15:29;;;;;;;3.30;1.70;;;;;;;;;;2023736;29;20046;-90
2022/09/07 03:16:29;;;;;;;2.33;1.95;;;;;;;;;;2031820;29;20036;-89
2022/09/07 03:17:30;;;;;;;6.80;2.15;;;;;;;;;;2032094;29;20043;-89
2022/09/07 03:18:30;;;;;;;2.05;1.85;;;;;;;;;;2023558;29;20036;-89
2022/09/07 03:19:31;;;;;;;3.17;2.08;;;;;;;;;;2015772;29;20032;-90
2022/09/07 03:20:31;;;;;;;2.25;1.92;;;;;;;;;;2023512;29;20503;-89
2022/09/07 03:21:31;;;;;;;2.08;1.85;;;;;;;;;;2023346;29;20478;-89
2022/09/07 03:22:33;;;;;;;1.98;1.75;;;;;;;;;;2023391;29;20047;-90
2022/09/07 03:23:35;;;;;;;3.13;2.05;;;;;;;;;;2031957;29;20028;-89
2022/09/07 03:24:35;;;;;;;2.40;1.70;;;;;;;;;;2031964;29;20031;-89
2022/09/07 03:25:36;;;;;;;4.00;2.03;;;;;;;;;;2031920;29;20534;-89
2022/09/07 03:26:40;;;;;;;3.20;1.85;;;;;;;;;;2023493;29;20155;-89
2022/09/07 03:27:41;;;;;;;2.75;2.00;;;;;;;;;;2016237;29;20029;-90
2022/09/07 03:28:41;;;;;;;3.17;1.80;;;;;;;;;;2023565;29;20480;-90
2022/09/07 03:29:42;;;;;;;2.38;1.70;;;;;;;;;;2023411;29;20032;-88
2022/09/07 03:30:45;;;;;;;1.88;1.60;;;;;;;;;;2023441;29;20087;-88
2022/09/07 03:31:45;;;;;;;3.10;2.47;;;;;;;;;;2031872;29;20029;-88
2022/09/07 03:32:46;;;;;;;2.97;1.90;;;;;;;;;;2023601;29;20028;-89
2022/09/07 03:33:47;;;;;;;2.42;1.90;;;;;;;;;;2023503;29;20467;-89
2022/09/07 03:34:47;;;;;;;2.03;1.55;;;;;;;;;;2031862;29;20068;-90
2022/09/07 03:35:57;;;;;;;3.20;2.03;;;;;;;;;;2023324;29;20029;-88
2022/09/07 03:36:57;;;;;;;3.40;2.22;;;;;;;;;;2023380;29;20499;-89
2022/09/07 03:37:58;;;;;;;3.13;2.33;;;;;;;;;;2023336;29;20040;-88
2022/09/07 03:38:58;;;;;;;2.35;1.95;;;;;;;;;;2023430;29;20048;-89
2022/09/07 03:39:59;;;;;;;5.38;2.28;;;;;;;;;;2023166;29;20036;-88
2022/09/07 03:41:04;;;;;;;3.72;2.00;;;;;;;;;;2023295;29;20032;-87
2022/09/07 03:42:05;;;;;;;4.22;2.00;;;;;;;;;;2023820;29;20447;-89
2022/09/07 03:43:05;;;;;;;4.60;2.05;;;;;;;;;;2031854;29;20047;-88
2022/09/07 03:44:06;;;;;;;3.83;2.10;;;;;;;;;;2023129;29;20032;-89
2022/09/07 03:45:08;;;;;;;4.05;2.13;;;;;;;;;;2023642;29;20088;-89
2022/09/07 03:46:09;;;;;;;1.95;1.75;;;;;;;;;;2023222;29;20191;-88
2022/09/07 03:47:09;;;;;;;2.67;2.05;;;;;;;;;;2023225;29;20028;-88
2022/09/07 03:48:10;;;;;;;3.20;1.90;;;;;;;;;;2023429;29;20036;-88
2022/09/07 03:49:10;;;;;;;4.20;2.40;;;;;;;;;;2023222;29;20064;-88
2022/09/07 03:50:11;;;;;;;2.30;2.08;;;;;;;;;;2023322;29;20074;-88
2022/09/07 03:51:13;;;;;;;1.95;1.73;;;;;;;;;;2031198;29;20390;-88
2022/09/07 03:52:13;;;;;;;2.50;2.30;;;;;;;;;;2030975;29;20476;-88
2022/09/07 03:53:14;;;;;;;3.47;2.70;;;;;;;;;;2023343;29;20033;-87
2022/09/07 03:54:14;;;;;;;2.63;2.10;;;;;;;;;;2025090;29;20484;-86
2022/09/07 03:55:15;;;;;;;2.65;2.05;;;;;;;;;;2032570;29;20059;-87
2022/09/07 03:56:20;;;;;;;3.47;2.85;;;;;;;;;;2031724;29;20040;-88
2022/09/07 03:57:21;;;;;;;2.55;1.98;;;;;;;;;;2023659;29;20110;-88
2022/09/07 03:58:21;;;;;;;5.20;2.58;;;;;;;;;;2023068;29;20032;-87
2022/09/07 03:59:22;;;;;;;3.55;2.60;;;;;;;;;;2031092;29;20032;-87
2022/09/07 04:00:22;;;;;;;3.42;2.20;;;;;;;;;;2023271;29;20311;-87
2022/09/07 04:01:24;;;;;;;3.53;2.55;;;;;;;;;;2033300;29;20063;-87
2022/09/07 04:02:25;;;;;;;3.25;2.10;;;;;;;;;;2024424;29;20024;-88
2022/09/07 04:03:27;;;;;;;2.50;2.30;;;;;;;;;;2016570;29;20051;-88
2022/09/07 04:04:28;;;;;;;4.63;2.70;;;;;;;;;;2023786;29;20104;-88
2022/09/07 04:05:28;;;;;;;3.95;2.50;;;;;;;;;;2030926;29;20523;-89
2022/09/07 04:06:29;;;;;;;2.30;1.90;;;;;;;;;;2023033;29;20133;-88
2022/09/07 04:07:30;;;;;;;2.45;2.05;;;;;;;;;;2015561;29;20029;-87
2022/09/07 04:08:33;;;;;;;3.75;2.35;;;;;;;;;;2015417;29;20120;-88
2022/09/07 04:09:33;;;;;;;2.53;2.25;;;;;;;;;;2023524;29;20036;-88
2022/09/07 04:10:38;;;;;;;3.10;1.77;;;;;;;;;;2031998;29;20452;-88
2022/09/07 04:11:41;;;;;;;5.88;2.55;;;;;;;;;;2023433;29;20070;-88
2022/09/07 04:12:42;;;;;;;4.00;2.40;;;;;;;;;;2023514;29;20128;-87
2022/09/07 04:13:44;;;;;;;2.53;2.00;;;;;;;;;;2030972;29;20043;-87
2022/09/07 04:14:45;;;;;;;4.70;2.67;;;;;;;;;;2032109;29;20479;-87
2022/09/07 04:15:45;;;;;;;3.85;2.30;;;;;;;;;;2032062;29;20550;-89
2022/09/07 04:16:46;;;;;;;2.88;2.25;;;;;;;;;;2032117;29;20076;-87
2022/09/07 04:17:47;;;;;;;3.05;2.20;;;;;;;;;;2023471;29;20029;-87
2022/09/07 04:18:53;;;;;;;2.83;2.35;;;;;;;;;;2023245;29;20091;-88
2022/09/07 04:19:54;;;;;;;3.17;2.30;;;;;;;;;;2032644;29;20036;-88
2022/09/07 04:20:57;;;;;;;3.33;2.10;;;;;;;;;;2023078;29;20480;-87
2022/09/07 04:21:58;;;;;;;4.82;2.58;;;;;;;;;;1685923;29;10001683;-88
2022/09/07 04:22:58;;;;;;;3.15;2.25;;;;;;;;;;2031157;29;20496;-88
2022/09/07 04:23:59;;;;;;;4.03;2.22;;;;;;;;;;2030791;29;20448;-88
2022/09/07 04:25:00;;;;;;;6.25;2.30;;;;;;;;;;2031553;29;20032;-88
2022/09/07 04:26:00;;;;;;;6.03;2.20;;;;;;;;;;2023360;29;20400;-88
2022/09/07 04:27:01;;;;;;;4.82;1.77;;;;;;;;;;1676902;29;10276195;-89
2022/09/07 04:28:03;;;;;;;3.20;2.35;;;;;;;;;;2024839;29;20041;-87
2022/09/07 04:29:05;;;;;;;4.05;2.70;;;;;;;;;;2024869;29;20574;-88
2022/09/07 04:30:06;;;;;;;3.60;2.00;;;;;;;;;;2023289;29;20043;-88
2022/09/07 04:31:07;;;;;;;3.85;2.28;;;;;;;;;;2023547;29;20033;-89
2022/09/07 04:32:07;;;;;;;3.10;2.28;;;;;;;;;;2031681;29;20036;-89
2022/09/07 04:33:08;;;;;;;2.70;2.03;;;;;;;;;;2031689;29;20124;-88
2022/09/07 04:34:09;;;;;;;4.15;2.45;;;;;;;;;;2022920;29;20115;-88
2022/09/07 04:35:10;;;;;;;2.20;2.00;;;;;;;;;;2015347;29;20029;-89
2022/09/07 04:36:11;;;;;;;2.65;2.05;;;;;;;;;;2023056;29;20540;-88
2022/09/07 04:37:11;;;;;;;2.90;2.08;;;;;;;;;;2031565;29;20036;-88
2022/09/07 04:38:13;;;;;;;7.32;2.58;;;;;;;;;;2022973;29;20025;-89
2022/09/07 04:39:14;;;;;;;2.92;2.08;;;;;;;;;;2023491;29;20471;-88
2022/09/07 04:40:14;;;;;;;2.65;2.08;;;;;;;;;;2030899;29;20137;-88
2022/09/07 04:41:16;;;;;;;4.90;1.90;;;;;;;;;;2031531;29;20488;-88
2022/09/07 04:42:17;;;;;;;4.30;2.17;;;;;;;;;;2023220;29;20028;-88
2022/09/07 04:43:17;;;;;;;2.47;2.00;;;;;;;;;;2023152;29;20426;-88
2022/09/07 04:44:18;;;;;;;3.00;2.00;;;;;;;;;;2031587;29;20038;-88
2022/09/07 04:45:18;;;;;;;4.18;1.90;;;;;;;;;;2031430;29;20122;-88
2022/09/07 04:46:22;;;;;;;5.00;2.20;;;;;;;;;;2031582;29;20083;-88
2022/09/07 04:47:22;;;;;;;2.38;2.15;;;;;;;;;;2023095;29;20024;-88
2022/09/07 04:48:23;;;;;;;5.05;2.33;;;;;;;;;;2023139;29;20024;-89
2022/09/07 04:49:23;;;;;;;3.40;2.28;;;;;;;;;;2023249;29;20116;-88
2022/09/07 04:50:24;;;;;;;3.15;2.00;;;;;;;;;;2015539;29;20033;-89
2022/09/07 04:51:27;;;;;;;3.70;1.70;;;;;;;;;;2015393;29;20017;-89
2022/09/07 04:52:27;;;;;;;3.80;2.20;;;;;;;;;;2023165;29;20160;-89
2022/09/07 04:53:29;;;;;;;3.45;1.90;;;;;;;;;;2023305;29;20055;-89
2022/09/07 04:54:29;;;;;;;4.55;2.15;;;;;;;;;;2031964;29;20028;-89
2022/09/07 04:55:30;;;;;;;6.28;2.78;;;;;;;;;;2023126;29;20133;-88
2022/09/07 04:56:31;;;;;;;4.57;2.30;;;;;;;;;;2023101;29;20080;-88
2022/09/07 04:57:32;;;;;;;6.07;2.20;;;;;;;;;;2031707;29;20047;-88
2022/09/07 04:58:32;;;;;;;6.00;2.38;;;;;;;;;;2023286;29;20422;-87
2022/09/07 04:59:33;;;;;;;6.10;2.63;;;;;;;;;;2023055;29;20036;-89
2022/09/07 05:00:33;;;;;;;3.97;2.25;;;;;;;;;;2031933;29;20230;-88
2022/09/07 05:01:34;;;;;;;4.38;2.28;;;;;;;;;;2023136;29;20048;-88
2022/09/07 05:02:34;;;;;;;3.97;2.55;;;;;;;;;;2015549;29;20123;-89
2022/09/07 05:03:37;;;;;;;4.93;1.90;;;;;;;;;;2023315;29;20029;-88
2022/09/07 05:04:37;;;;;;;3.83;1.80;;;;;;;;;;2031818;29;20079;-88
2022/09/07 05:05:38;;;;;;;3.65;2.08;;;;;;;;;;2023136;29;20491;-88
2022/09/07 05:06:38;;;;;;;5.78;1.80;;;;;;;;;;2023270;29;20021;-89
2022/09/07 05:07:38;;;;;;;3.60;1.88;;;;;;;;;;2031327;29;20036;-88
2022/09/07 05:08:42;;;;;;;2.40;1.90;;;;;;;;;;2031512;29;20046;-88
2022/09/07 05:09:42;;;;;;;2.97;1.70;;;;;;;;;;2031615;29;20530;-87
2022/09/07 05:10:50;;;;;;;3.95;2.00;;;;;;;;;;2023010;29;20048;-87
2022/09/07 05:11:51;;;;;;;6.10;2.08;;;;;;;;;;2025180;29;20120;-87
2022/09/07 05:12:51;;;;;;;2.47;1.80;;;;;;;;;;2022368;29;20504;-88
2022/09/07 05:13:52;;;;;;;4.85;1.65;;;;;;;;;;2022529;29;20028;-87
2022/09/07 05:14:52;;;;;;;2.63;1.50;;;;;;;;;;2022950;29;20381;-88
2022/09/07 05:15:53;;;;;;;2.28;1.77;;;;;;;;;;2022819;29;20024;-87
2022/09/07 05:16:53;;;;;;;4.70;2.08;;;;;;;;;;2031581;29;20344;-87
2022/09/07 05:17:54;;;;;;;4.30;2.03;;;;;;;;;;2032183;29;20479;-88
2022/09/07 05:19:01;;;;;;;3.22;1.98;;;;;;;;;;2032403;29;20047;-88
2022/09/07 05:20:02;;;;;;;2.38;1.70;;;;;;;;;;2032886;29;20028;-88
2022/09/07 05:21:14;;;;;;;4.55;2.55;;;;;;;;;;2024389;29;20062;-88
2022/09/07 05:22:15;;;;;;;5.93;2.10;;;;;;;;;;2025838;29;20096;-88
2022/09/07 05:23:20;;;;;;;4.72;2.17;;;;;;;;;;2024292;29;20048;-90
2022/09/07 05:24:20;;;;;;;4.43;1.75;;;;;;;;;;2025137;29;20631;-89
2022/09/07 05:25:21;;;;;;;5.97;2.20;;;;;;;;;;2032818;29;20032;-89
2022/09/07 05:26:24;;;;;;;4.05;2.42;;;;;;;;;;2032820;29;20039;-89
2022/09/07 05:27:24;;;;;;;4.88;2.00;;;;;;;;;;2032844;29;20032;-89
2022/09/07 05:28:25;;;;;;;2.95;1.90;;;;;;;;;;2024394;29;20035;-89
2022/09/07 05:29:25;;;;;;;7.28;2.38;;;;;;;;;;2024323;29;20052;-88
2022/09/07 05:30:25;;;;;;;3.88;2.20;;;;;;;;;;2031835;29;20019;-88
2022/09/07 05:31:26;;;;;;;4.07;1.95;;;;;;;;;;2032278;29;20103;-89
2022/09/07 05:32:26;;;;;;;5.57;2.40;;;;;;;;;;2016419;29;20463;-89
2022/09/07 05:33:27;;;;;;;6.25;2.90;;;;;;;;;;2016531;29;20025;-90
2022/09/07 05:34:27;;;;;;;8.05;2.92;;;;;;;;;;2016422;29;20456;-88
2022/09/07 05:35:30;;;;;;;5.63;2.70;;;;;;;;;;2031695;29;20115;-89
2022/09/07 05:37:00;;;;;;;6.07;2.90;;;;;;;;;;2023547;29;21075;-90
2022/09/07 05:38:01;;;;;;;5.53;3.08;;;;;;;;;;2011882;29;20043;-90
2022/09/07 05:39:02;;;;;;;10.65;3.97;;;;;;;;;;2024759;29;20048;-89
2022/09/07 05:40:04;;;;;;;5.68;3.30;;;;;;;;;;2024635;29;21012;-88
2022/09/07 05:41:16;;;;;;;8.55;3.40;;;;;;;;;;2023531;29;20093;-88
2022/09/07 05:42:17;;;;;;;10.18;3.42;;;;;;;;;;2023692;29;20417;-88
2022/09/07 05:43:17;;;;;;;6.78;3.97;;;;;;;;;;2024347;29;20076;-88
2022/09/07 05:44:18;;;;;;;6.57;3.38;;;;;;;;;;2016026;29;20519;-88
2022/09/07 05:45:18;;;;;;;7.90;3.85;;;;;;;;;;2016419;29;20071;-88
2022/09/07 05:46:19;;;;;;;5.70;3.00;;;;;;;;;;2024171;29;20112;-89
2022/09/07 05:47:19;;;;;;;6.35;3.00;;;;;;;;;;2023825;29;20060;-88
2022/09/07 05:48:20;;;;;;;5.95;2.70;;;;;;;;;;2016313;29;20040;-89
2022/09/07 05:49:20;;;;;;;8.45;3.33;;;;;;;;;;2018268;29;20033;-86
2022/09/07 05:50:21;;;;;;;5.80;3.03;;;;;;;;;;2026455;29;20060;-88
2022/09/07 05:51:22;;;;;;;5.45;3.00;;;;;;;;;;2016360;29;20127;-89
2022/09/07 05:52:22;;;;;;;4.75;2.22;;;;;;;;;;2016602;29;20029;-90
2022/09/07 05:53:23;;;;;;;3.17;2.28;;;;;;;;;;2016271;29;20092;-90
2022/09/07 05:54:23;;;;;;;6.03;3.00;;;;;;;;;;2023619;29;20029;-90
2022/09/07 05:55:23;;;;;;;4.22;2.30;;;;;;;;;;2023696;29;20116;-90
2022/09/07 05:56:24;;;;;;;2.88;2.13;;;;;;;;;;2008727;29;20070;-90
2022/09/07 05:57:25;;;;;;;3.83;1.98;;;;;;;;;;2008729;29;20077;-90
2022/09/07 05:58:27;;;;;;;4.15;2.55;;;;;;;;;;2015858;29;20573;-89
2022/09/07 05:59:27;;;;;;;2.53;1.90;;;;;;;;;;2023367;29;20043;-90
2022/09/07 06:00:28;;;;;;;5.35;2.08;;;;;;;;;;2023804;29;20056;-90
2022/09/07 06:01:28;;;;;;;7.10;2.28;;;;;;;;;;2024442;29;20450;-89
2022/09/07 06:02:29;;;;;;;5.43;2.40;;;;;;;;;;2024194;29;20032;-89
2022/09/07 06:03:30;;;;;;;3.35;2.38;;;;;;;;;;2024301;29;20399;-89
2022/09/07 06:04:30;;;;;;;6.18;2.40;;;;;;;;;;2023975;29;20040;-89
2022/09/07 06:05:31;;;;;;;9.00;3.97;;;;;;;;;;2023856;29;20418;-89
2022/09/07 06:06:35;;;;;;;6.13;3.00;;;;;;;;;;2023920;29;20100;-89
2022/09/07 06:07:36;;;;;;;3.30;2.05;;;;;;;;;;2016504;29;20407;-89
2022/09/07 06:08:41;;;;;;;5.78;2.95;;;;;;;;;;2016106;29;20021;-89
2022/09/07 06:09:41;;;;;;;3.55;2.40;;;;;;;;;;2024165;29;20431;-89
2022/09/07 06:10:42;;;;;;;2.55;2.00;;;;;;;;;;2024438;29;20035;-89
2022/09/07 06:11:43;;;;;;;5.25;2.05;;;;;;;;;;2024360;29;20318;-90
2022/09/07 06:12:45;;;;;;;3.35;2.03;;;;;;;;;;2024277;29;20045;-90
2022/09/07 06:13:45;;;;;;;8.85;2.30;;;;;;;;;;2024431;29;20032;-90
2022/09/07 06:14:46;;;;;;;2.65;1.52;;;;;;;;;;2024421;29;20483;-90
2022/09/07 06:15:47;;;;;;;3.67;2.22;;;;;;;;;;2024886;29;20460;-90
2022/09/07 06:16:48;;;;;;;6.15;2.33;;;;;;;;;;2024405;29;20499;-90
2022/09/07 06:17:48;;;;;;;3.20;1.88;;;;;;;;;;2016449;29;20056;-90
2022/09/07 06:18:49;;;;;;;3.15;2.00;;;;;;;;;;2016478;29;20284;-91
2022/09/07 06:19:49;;;;;;;3.90;1.85;;;;;;;;;;2023909;29;20080;-89
2022/09/07 06:20:52;;;;;;;5.47;2.28;;;;;;;;;;2024108;29;20043;-89
2022/09/07 06:21:52;;;;;;;3.03;2.05;;;;;;;;;;2024769;29;20050;-91
2022/09/07 06:22:53;;;;;;;2.88;1.70;;;;;;;;;;2024874;29;20499;-90
2022/09/07 06:23:53;;;;;;;3.50;1.85;;;;;;;;;;2024985;29;20674;-90
2022/09/07 06:24:54;;;;;;;3.85;1.60;;;;;;;;;;2025013;29;20286;-90
2022/09/07 06:25:54;;;;;;;2.67;1.70;;;;;;;;;;2016267;29;20092;-90